sensor_id;sensor_type;location;lat;lon;timestamp;P1;durP1;ratioP1;P2;durP2;ratioP2
10458;SDS011;5277;48.722;8.736;2024-03-02T00:02:12;6.47;;;3.10;;
10458;SDS011;5277;48.722;8.736;2024-03-02T00:04:39;6.00;;;3.13;;
10458;SDS011;5277;48.722;8.736;2024-03-02T00:07:04;4.60;;;2.87;;
10458;SDS011;5277;48.722;8.736;2024-03-02T00:09:31;5.47;;;3.27;;
10458;SDS011;5277;48.722;8.736;2024-03-02T00:11:58;4.47;;;2.93;;
10458;SDS011;5277;48.722;8.736;2024-03-02T00:14:25;6.27;;;3.60;;
10458;SDS011;5277;48.722;8.736;2024-03-02T00:16:51;4.63;;;3.37;;
10458;SDS011;5277;48.722;8.736;2024-03-02T00:19:17;5.17;;;3.50;;
10458;SDS011;5277;48.722;8.736;2024-03-02T00:21:43;7.50;;;3.43;;
10458;SDS011;5277;48.722;8.736;2024-03-02T00:24:17;8.90;;;3.30;;
10458;SDS011;5277;48.722;8.736;2024-03-02T00:26:46;6.23;;;3.43;;
10458;SDS011;5277;48.722;8.736;2024-03-02T00:29:13;5.73;;;3.07;;
10458;SDS011;5277;48.722;8.736;2024-03-02T00:31:41;5.70;;;3.10;;
10458;SDS011;5277;48.722;8.736;2024-03-02T00:34:07;6.33;;;3.33;;
10458;SDS011;5277;48.722;8.736;2024-03-02T00:36:32;5.30;;;3.20;;
10458;SDS011;5277;48.722;8.736;2024-03-02T00:38:58;6.23;;;3.40;;
10458;SDS011;5277;48.722;8.736;2024-03-02T00:41:25;6.60;;;3.80;;
10458;SDS011;5277;48.722;8.736;2024-03-02T00:43:57;7.13;;;3.47;;
10458;SDS011;5277;48.722;8.736;2024-03-02T00:46:23;8.00;;;3.30;;
10458;SDS011;5277;48.722;8.736;2024-03-02T00:48:54;5.97;;;3.57;;
10458;SDS011;5277;48.722;8.736;2024-03-02T00:51:24;6.17;;;3.87;;
10458;SDS011;5277;48.722;8.736;2024-03-02T00:53:54;5.57;;;3.10;;
10458;SDS011;5277;48.722;8.736;2024-03-02T00:56:23;4.87;;;3.30;;
10458;SDS011;5277;48.722;8.736;2024-03-02T00:58:49;6.73;;;3.87;;
10458;SDS011;5277;48.722;8.736;2024-03-02T01:01:15;5.40;;;3.70;;
10458;SDS011;5277;48.722;8.736;2024-03-02T01:03:41;7.47;;;4.50;;
10458;SDS011;5277;48.722;8.736;2024-03-02T01:06:08;6.07;;;3.40;;
10458;SDS011;5277;48.722;8.736;2024-03-02T01:08:34;5.17;;;3.33;;
10458;SDS011;5277;48.722;8.736;2024-03-02T01:11:00;7.17;;;3.60;;
10458;SDS011;5277;48.722;8.736;2024-03-02T01:13:26;5.83;;;3.70;;
10458;SDS011;5277;48.722;8.736;2024-03-02T01:15:52;6.40;;;4.13;;
10458;SDS011;5277;48.722;8.736;2024-03-02T01:18:18;9.03;;;4.33;;
10458;SDS011;5277;48.722;8.736;2024-03-02T01:20:44;6.67;;;3.77;;
10458;SDS011;5277;48.722;8.736;2024-03-02T01:23:09;7.03;;;4.37;;
10458;SDS011;5277;48.722;8.736;2024-03-02T01:25:35;12.10;;;4.90;;
10458;SDS011;5277;48.722;8.736;2024-03-02T01:28:00;8.50;;;4.73;;
10458;SDS011;5277;48.722;8.736;2024-03-02T01:30:26;5.90;;;3.97;;
10458;SDS011;5277;48.722;8.736;2024-03-02T01:32:52;7.80;;;3.70;;
10458;SDS011;5277;48.722;8.736;2024-03-02T01:35:17;7.67;;;3.77;;
10458;SDS011;5277;48.722;8.736;2024-03-02T01:37:55;9.97;;;3.67;;
10458;SDS011;5277;48.722;8.736;2024-03-02T01:41:09;8.43;;;3.60;;
10458;SDS011;5277;48.722;8.736;2024-03-02T01:43:53;6.53;;;4.30;;
10458;SDS011;5277;48.722;8.736;2024-03-02T01:46:19;6.90;;;3.97;;
10458;SDS011;5277;48.722;8.736;2024-03-02T01:49:03;7.70;;;4.60;;
10458;SDS011;5277;48.722;8.736;2024-03-02T01:57:29;8.87;;;4.90;;
10458;SDS011;5277;48.722;8.736;2024-03-02T01:59:59;11.13;;;5.20;;
10458;SDS011;5277;48.722;8.736;2024-03-02T02:02:48;9.43;;;5.00;;
10458;SDS011;5277;48.722;8.736;2024-03-02T02:05:39;8.00;;;4.87;;
10458;SDS011;5277;48.722;8.736;2024-03-02T02:08:17;9.17;;;4.40;;
10458;SDS011;5277;48.722;8.736;2024-03-02T02:10:51;7.93;;;3.90;;
10458;SDS011;5277;48.722;8.736;2024-03-02T02:13:24;7.83;;;4.40;;
10458;SDS011;5277;48.722;8.736;2024-03-02T02:16:06;10.63;;;4.60;;
10458;SDS011;5277;48.722;8.736;2024-03-02T02:19:00;7.53;;;4.33;;
10458;SDS011;5277;48.722;8.736;2024-03-02T02:21:29;9.63;;;4.60;;
10458;SDS011;5277;48.722;8.736;2024-03-02T02:24:13;8.87;;;3.93;;
10458;SDS011;5277;48.722;8.736;2024-03-02T02:26:39;15.20;;;5.20;;
10458;SDS011;5277;48.722;8.736;2024-03-02T02:29:12;11.47;;;4.50;;
10458;SDS011;5277;48.722;8.736;2024-03-02T02:32:06;10.70;;;4.30;;
10458;SDS011;5277;48.722;8.736;2024-03-02T02:34:49;10.27;;;3.80;;
10458;SDS011;5277;48.722;8.736;2024-03-02T02:37:24;6.63;;;4.10;;
10458;SDS011;5277;48.722;8.736;2024-03-02T02:39:49;10.87;;;4.50;;
10458;SDS011;5277;48.722;8.736;2024-03-02T02:42:15;6.10;;;3.83;;
10458;SDS011;5277;48.722;8.736;2024-03-02T02:44:44;5.57;;;3.60;;
10458;SDS011;5277;48.722;8.736;2024-03-02T02:47:17;8.80;;;4.10;;
10458;SDS011;5277;48.722;8.736;2024-03-02T02:49:45;8.20;;;4.53;;
10458;SDS011;5277;48.722;8.736;2024-03-02T02:52:16;6.80;;;3.97;;
10458;SDS011;5277;48.722;8.736;2024-03-02T02:54:47;8.30;;;3.80;;
10458;SDS011;5277;48.722;8.736;2024-03-02T02:57:18;11.57;;;4.50;;
10458;SDS011;5277;48.722;8.736;2024-03-02T02:59:49;8.80;;;3.93;;
10458;SDS011;5277;48.722;8.736;2024-03-02T03:02:23;7.70;;;4.33;;
10458;SDS011;5277;48.722;8.736;2024-03-02T03:04:49;5.03;;;3.37;;
10458;SDS011;5277;48.722;8.736;2024-03-02T03:07:14;10.80;;;4.20;;
10458;SDS011;5277;48.722;8.736;2024-03-02T03:09:40;7.43;;;3.77;;
10458;SDS011;5277;48.722;8.736;2024-03-02T03:12:05;8.60;;;4.03;;
10458;SDS011;5277;48.722;8.736;2024-03-02T03:14:31;8.10;;;3.50;;
10458;SDS011;5277;48.722;8.736;2024-03-02T03:16:57;7.47;;;4.00;;
10458;SDS011;5277;48.722;8.736;2024-03-02T03:19:22;8.10;;;4.07;;
10458;SDS011;5277;48.722;8.736;2024-03-02T03:21:51;7.70;;;4.10;;
10458;SDS011;5277;48.722;8.736;2024-03-02T03:24:17;5.83;;;3.60;;
10458;SDS011;5277;48.722;8.736;2024-03-02T03:26:42;6.33;;;4.20;;
10458;SDS011;5277;48.722;8.736;2024-03-02T03:29:10;9.83;;;4.33;;
10458;SDS011;5277;48.722;8.736;2024-03-02T03:31:47;9.57;;;4.67;;
10458;SDS011;5277;48.722;8.736;2024-03-02T03:34:18;5.57;;;3.83;;
10458;SDS011;5277;48.722;8.736;2024-03-02T03:37:00;8.23;;;4.47;;
10458;SDS011;5277;48.722;8.736;2024-03-02T03:39:38;7.63;;;4.53;;
10458;SDS011;5277;48.722;8.736;2024-03-02T03:42:12;8.00;;;4.43;;
10458;SDS011;5277;48.722;8.736;2024-03-02T03:44:49;6.87;;;4.23;;
10458;SDS011;5277;48.722;8.736;2024-03-02T03:47:25;8.63;;;3.87;;
10458;SDS011;5277;48.722;8.736;2024-03-02T03:50:02;8.03;;;4.40;;
10458;SDS011;5277;48.722;8.736;2024-03-02T03:52:32;8.27;;;4.70;;
10458;SDS011;5277;48.722;8.736;2024-03-02T03:55:05;10.23;;;5.40;;
10458;SDS011;5277;48.722;8.736;2024-03-02T03:57:34;9.37;;;5.17;;
10458;SDS011;5277;48.722;8.736;2024-03-02T04:00:00;9.13;;;5.13;;
10458;SDS011;5277;48.722;8.736;2024-03-02T04:02:28;8.97;;;5.20;;
10458;SDS011;5277;48.722;8.736;2024-03-02T04:04:54;7.20;;;4.27;;
10458;SDS011;5277;48.722;8.736;2024-03-02T04:07:25;9.23;;;5.10;;
10458;SDS011;5277;48.722;8.736;2024-03-02T04:09:56;9.67;;;5.50;;
10458;SDS011;5277;48.722;8.736;2024-03-02T04:12:22;7.13;;;4.70;;
10458;SDS011;5277;48.722;8.736;2024-03-02T04:14:50;12.73;;;5.20;;
10458;SDS011;5277;48.722;8.736;2024-03-02T04:17:18;9.73;;;6.00;;
10458;SDS011;5277;48.722;8.736;2024-03-02T04:20:00;11.00;;;5.23;;
10458;SDS011;5277;48.722;8.736;2024-03-02T04:22:30;10.73;;;5.67;;
10458;SDS011;5277;48.722;8.736;2024-03-02T04:24:57;11.50;;;5.60;;
10458;SDS011;5277;48.722;8.736;2024-03-02T04:27:25;9.37;;;5.50;;
10458;SDS011;5277;48.722;8.736;2024-03-02T04:29:51;11.47;;;5.17;;
10458;SDS011;5277;48.722;8.736;2024-03-02T04:32:17;9.60;;;5.70;;
10458;SDS011;5277;48.722;8.736;2024-03-02T04:35:01;9.87;;;5.70;;
10458;SDS011;5277;48.722;8.736;2024-03-02T04:37:27;11.03;;;5.90;;
10458;SDS011;5277;48.722;8.736;2024-03-02T04:39:52;10.67;;;6.03;;
10458;SDS011;5277;48.722;8.736;2024-03-02T04:42:18;8.43;;;5.33;;
10458;SDS011;5277;48.722;8.736;2024-03-02T04:44:47;10.57;;;5.97;;
10458;SDS011;5277;48.722;8.736;2024-03-02T04:47:13;11.23;;;6.20;;
10458;SDS011;5277;48.722;8.736;2024-03-02T04:49:39;13.40;;;6.03;;
10458;SDS011;5277;48.722;8.736;2024-03-02T04:55:31;10.40;;;5.90;;
10458;SDS011;5277;48.722;8.736;2024-03-02T04:58:40;10.80;;;5.60;;
10458;SDS011;5277;48.722;8.736;2024-03-02T05:01:12;11.90;;;5.33;;
10458;SDS011;5277;48.722;8.736;2024-03-02T05:04:06;8.80;;;5.20;;
10458;SDS011;5277;48.722;8.736;2024-03-02T05:07:09;7.53;;;5.03;;
10458;SDS011;5277;48.722;8.736;2024-03-02T05:09:48;10.33;;;5.17;;
10458;SDS011;5277;48.722;8.736;2024-03-02T05:12:38;10.20;;;5.10;;
10458;SDS011;5277;48.722;8.736;2024-03-02T05:15:27;8.57;;;4.87;;
10458;SDS011;5277;48.722;8.736;2024-03-02T05:18:37;8.10;;;5.07;;
10458;SDS011;5277;48.722;8.736;2024-03-02T05:21:17;9.73;;;4.83;;
10458;SDS011;5277;48.722;8.736;2024-03-02T05:24:01;12.10;;;5.83;;
10458;SDS011;5277;48.722;8.736;2024-03-02T05:27:15;9.60;;;4.93;;
10458;SDS011;5277;48.722;8.736;2024-03-02T05:30:17;9.90;;;5.10;;
10458;SDS011;5277;48.722;8.736;2024-03-02T05:32:55;7.50;;;4.53;;
10458;SDS011;5277;48.722;8.736;2024-03-02T05:35:39;9.23;;;5.10;;
10458;SDS011;5277;48.722;8.736;2024-03-02T05:44:12;7.87;;;4.80;;
10458;SDS011;5277;48.722;8.736;2024-03-02T05:46:48;10.30;;;4.70;;
10458;SDS011;5277;48.722;8.736;2024-03-02T05:49:42;9.73;;;5.23;;
10458;SDS011;5277;48.722;8.736;2024-03-02T05:58:41;9.60;;;4.70;;
10458;SDS011;5277;48.722;8.736;2024-03-02T06:07:21;10.10;;;5.67;;
10458;SDS011;5277;48.722;8.736;2024-03-02T06:10:14;12.77;;;6.03;;
10458;SDS011;5277;48.722;8.736;2024-03-02T06:12:56;10.77;;;5.60;;
10458;SDS011;5277;48.722;8.736;2024-03-02T06:15:27;9.70;;;5.33;;
10458;SDS011;5277;48.722;8.736;2024-03-02T06:17:56;11.57;;;5.20;;
10458;SDS011;5277;48.722;8.736;2024-03-02T06:23:51;8.50;;;5.00;;
10458;SDS011;5277;48.722;8.736;2024-03-02T06:26:26;8.67;;;4.90;;
10458;SDS011;5277;48.722;8.736;2024-03-02T06:29:02;8.23;;;5.27;;
10458;SDS011;5277;48.722;8.736;2024-03-02T06:31:33;11.70;;;5.67;;
10458;SDS011;5277;48.722;8.736;2024-03-02T06:34:02;11.70;;;5.13;;
10458;SDS011;5277;48.722;8.736;2024-03-02T06:36:35;10.17;;;5.73;;
10458;SDS011;5277;48.722;8.736;2024-03-02T06:39:11;11.33;;;5.77;;
10458;SDS011;5277;48.722;8.736;2024-03-02T06:41:54;12.10;;;6.00;;
10458;SDS011;5277;48.722;8.736;2024-03-02T06:44:22;15.00;;;6.20;;
10458;SDS011;5277;48.722;8.736;2024-03-02T06:46:56;9.97;;;5.53;;
10458;SDS011;5277;48.722;8.736;2024-03-02T06:49:27;9.43;;;5.63;;
10458;SDS011;5277;48.722;8.736;2024-03-02T06:52:04;11.10;;;6.07;;
10458;SDS011;5277;48.722;8.736;2024-03-02T06:55:02;9.07;;;5.73;;
10458;SDS011;5277;48.722;8.736;2024-03-02T06:58:04;11.13;;;6.20;;
10458;SDS011;5277;48.722;8.736;2024-03-02T07:00:53;11.30;;;5.63;;
10458;SDS011;5277;48.722;8.736;2024-03-02T07:03:33;9.80;;;5.60;;
10458;SDS011;5277;48.722;8.736;2024-03-02T07:06:14;12.30;;;6.50;;
10458;SDS011;5277;48.722;8.736;2024-03-02T07:09:13;12.23;;;5.97;;
10458;SDS011;5277;48.722;8.736;2024-03-02T07:11:47;10.23;;;5.87;;
10458;SDS011;5277;48.722;8.736;2024-03-02T07:14:36;12.70;;;6.57;;
10458;SDS011;5277;48.722;8.736;2024-03-02T07:17:35;10.37;;;5.60;;
10458;SDS011;5277;48.722;8.736;2024-03-02T07:20:05;11.30;;;6.40;;
10458;SDS011;5277;48.722;8.736;2024-03-02T07:22:45;9.77;;;6.00;;
10458;SDS011;5277;48.722;8.736;2024-03-02T07:25:24;10.80;;;6.27;;
10458;SDS011;5277;48.722;8.736;2024-03-02T07:28:08;13.17;;;7.33;;
10458;SDS011;5277;48.722;8.736;2024-03-02T07:30:53;8.60;;;5.93;;
10458;SDS011;5277;48.722;8.736;2024-03-02T07:33:43;13.00;;;6.20;;
10458;SDS011;5277;48.722;8.736;2024-03-02T07:36:21;12.30;;;6.43;;
10458;SDS011;5277;48.722;8.736;2024-03-02T07:42:03;14.53;;;7.17;;
10458;SDS011;5277;48.722;8.736;2024-03-02T07:44:35;11.23;;;6.60;;
10458;SDS011;5277;48.722;8.736;2024-03-02T07:47:07;12.70;;;6.70;;
10458;SDS011;5277;48.722;8.736;2024-03-02T07:49:43;12.80;;;7.20;;
10458;SDS011;5277;48.722;8.736;2024-03-02T07:52:11;16.07;;;7.93;;
10458;SDS011;5277;48.722;8.736;2024-03-02T07:54:47;13.90;;;7.47;;
10458;SDS011;5277;48.722;8.736;2024-03-02T07:57:21;15.97;;;7.83;;
10458;SDS011;5277;48.722;8.736;2024-03-02T08:00:06;12.57;;;7.07;;
10458;SDS011;5277;48.722;8.736;2024-03-02T08:02:45;15.57;;;8.80;;
10458;SDS011;5277;48.722;8.736;2024-03-02T08:05:21;14.80;;;9.43;;
10458;SDS011;5277;48.722;8.736;2024-03-02T08:07:55;16.13;;;8.63;;
10458;SDS011;5277;48.722;8.736;2024-03-02T08:10:33;13.77;;;8.00;;
10458;SDS011;5277;48.722;8.736;2024-03-02T08:13:35;13.87;;;8.07;;
10458;SDS011;5277;48.722;8.736;2024-03-02T08:16:03;13.03;;;7.77;;
10458;SDS011;5277;48.722;8.736;2024-03-02T08:18:32;11.20;;;7.37;;
10458;SDS011;5277;48.722;8.736;2024-03-02T08:20:58;10.90;;;7.13;;
10458;SDS011;5277;48.722;8.736;2024-03-02T08:23:26;9.00;;;6.50;;
10458;SDS011;5277;48.722;8.736;2024-03-02T08:25:55;9.10;;;6.50;;
10458;SDS011;5277;48.722;8.736;2024-03-02T08:28:36;13.23;;;6.70;;
10458;SDS011;5277;48.722;8.736;2024-03-02T08:31:11;11.23;;;6.93;;
10458;SDS011;5277;48.722;8.736;2024-03-02T08:33:36;10.97;;;6.60;;
10458;SDS011;5277;48.722;8.736;2024-03-02T08:36:02;11.50;;;7.03;;
10458;SDS011;5277;48.722;8.736;2024-03-02T08:38:28;11.33;;;7.10;;
10458;SDS011;5277;48.722;8.736;2024-03-02T08:40:54;10.77;;;6.93;;
10458;SDS011;5277;48.722;8.736;2024-03-02T08:43:20;11.07;;;6.63;;
10458;SDS011;5277;48.722;8.736;2024-03-02T08:45:47;8.27;;;6.13;;
10458;SDS011;5277;48.722;8.736;2024-03-02T08:48:13;12.05;;;7.55;;
10458;SDS011;5277;48.722;8.736;2024-03-02T08:50:39;14.05;;;7.85;;
10458;SDS011;5277;48.722;8.736;2024-03-02T08:53:04;11.02;;;7.07;;
10458;SDS011;5277;48.722;8.736;2024-03-02T08:55:30;10.82;;;7.13;;
10458;SDS011;5277;48.722;8.736;2024-03-02T08:57:55;9.60;;;6.72;;
10458;SDS011;5277;48.722;8.736;2024-03-02T09:00:21;10.82;;;6.80;;
10458;SDS011;5277;48.722;8.736;2024-03-02T09:02:48;11.48;;;6.82;;
10458;SDS011;5277;48.722;8.736;2024-03-02T09:05:14;9.38;;;6.32;;
10458;SDS011;5277;48.722;8.736;2024-03-02T09:07:40;10.50;;;6.60;;
10458;SDS011;5277;48.722;8.736;2024-03-02T09:10:05;9.82;;;6.78;;
10458;SDS011;5277;48.722;8.736;2024-03-02T09:12:32;11.10;;;7.85;;
10458;SDS011;5277;48.722;8.736;2024-03-02T09:14:59;13.35;;;7.32;;
10458;SDS011;5277;48.722;8.736;2024-03-02T09:17:25;11.82;;;7.15;;
10458;SDS011;5277;48.722;8.736;2024-03-02T09:19:51;12.98;;;7.93;;
10458;SDS011;5277;48.722;8.736;2024-03-02T09:22:18;11.73;;;7.32;;
10458;SDS011;5277;48.722;8.736;2024-03-02T09:24:43;11.77;;;7.47;;
10458;SDS011;5277;48.722;8.736;2024-03-02T09:27:09;10.82;;;7.00;;
10458;SDS011;5277;48.722;8.736;2024-03-02T09:29:35;10.20;;;6.85;;
10458;SDS011;5277;48.722;8.736;2024-03-02T09:32:01;9.85;;;6.88;;
10458;SDS011;5277;48.722;8.736;2024-03-02T09:34:26;10.00;;;6.90;;
10458;SDS011;5277;48.722;8.736;2024-03-02T09:36:52;9.98;;;7.15;;
10458;SDS011;5277;48.722;8.736;2024-03-02T09:39:18;10.98;;;6.85;;
10458;SDS011;5277;48.722;8.736;2024-03-02T09:41:43;9.23;;;6.25;;
10458;SDS011;5277;48.722;8.736;2024-03-02T09:44:09;9.48;;;6.50;;
10458;SDS011;5277;48.722;8.736;2024-03-02T09:46:35;8.98;;;6.65;;
10458;SDS011;5277;48.722;8.736;2024-03-02T09:49:01;7.70;;;6.03;;
10458;SDS011;5277;48.722;8.736;2024-03-02T09:51:27;9.88;;;6.32;;
10458;SDS011;5277;48.722;8.736;2024-03-02T09:53:54;10.30;;;6.13;;
10458;SDS011;5277;48.722;8.736;2024-03-02T09:56:23;12.00;;;5.97;;
10458;SDS011;5277;48.722;8.736;2024-03-02T09:58:49;8.45;;;5.45;;
10458;SDS011;5277;48.722;8.736;2024-03-02T10:01:14;12.63;;;5.72;;
10458;SDS011;5277;48.722;8.736;2024-03-02T10:03:40;7.07;;;5.00;;
10458;SDS011;5277;48.722;8.736;2024-03-02T10:08:51;8.07;;;4.85;;
10458;SDS011;5277;48.722;8.736;2024-03-02T10:16:38;7.18;;;4.65;;
10458;SDS011;5277;48.722;8.736;2024-03-02T10:19:18;5.15;;;4.00;;
10458;SDS011;5277;48.722;8.736;2024-03-02T10:21:51;6.15;;;4.32;;
10458;SDS011;5277;48.722;8.736;2024-03-02T10:24:19;5.63;;;4.28;;
10458;SDS011;5277;48.722;8.736;2024-03-02T10:26:46;5.57;;;3.58;;
10458;SDS011;5277;48.722;8.736;2024-03-02T10:29:12;7.18;;;4.25;;
10458;SDS011;5277;48.722;8.736;2024-03-02T10:31:38;5.65;;;3.92;;
10458;SDS011;5277;48.722;8.736;2024-03-02T10:34:05;5.85;;;3.58;;
10458;SDS011;5277;48.722;8.736;2024-03-02T10:36:32;5.65;;;3.72;;
10458;SDS011;5277;48.722;8.736;2024-03-02T10:39:01;6.88;;;4.10;;
10458;SDS011;5277;48.722;8.736;2024-03-02T10:41:34;4.90;;;3.33;;
10458;SDS011;5277;48.722;8.736;2024-03-02T10:44:05;4.63;;;3.13;;
10458;SDS011;5277;48.722;8.736;2024-03-02T10:46:33;4.13;;;2.70;;
10458;SDS011;5277;48.722;8.736;2024-03-02T10:49:00;4.43;;;3.35;;
10458;SDS011;5277;48.722;8.736;2024-03-02T10:51:28;3.85;;;3.03;;
10458;SDS011;5277;48.722;8.736;2024-03-02T10:53:57;3.72;;;2.97;;
10458;SDS011;5277;48.722;8.736;2024-03-02T10:56:30;5.60;;;2.80;;
10458;SDS011;5277;48.722;8.736;2024-03-02T11:01:51;3.45;;;2.20;;
10458;SDS011;5277;48.722;8.736;2024-03-02T11:04:23;5.35;;;2.72;;
10458;SDS011;5277;48.722;8.736;2024-03-02T11:06:51;5.22;;;2.60;;
10458;SDS011;5277;48.722;8.736;2024-03-02T11:09:20;3.30;;;2.35;;
10458;SDS011;5277;48.722;8.736;2024-03-02T11:11:50;3.67;;;2.42;;
10458;SDS011;5277;48.722;8.736;2024-03-02T11:14:27;2.97;;;1.80;;
10458;SDS011;5277;48.722;8.736;2024-03-02T11:17:03;2.60;;;1.80;;
10458;SDS011;5277;48.722;8.736;2024-03-02T11:19:30;1.98;;;1.63;;
10458;SDS011;5277;48.722;8.736;2024-03-02T11:21:56;2.75;;;1.52;;
10458;SDS011;5277;48.722;8.736;2024-03-02T11:27:08;2.97;;;1.67;;
10458;SDS011;5277;48.722;8.736;2024-03-02T11:34:54;4.50;;;2.30;;
10458;SDS011;5277;48.722;8.736;2024-03-02T11:37:30;3.53;;;2.42;;
10458;SDS011;5277;48.722;8.736;2024-03-02T11:40:00;4.63;;;2.35;;
10458;SDS011;5277;48.722;8.736;2024-03-02T11:42:25;4.05;;;2.65;;
10458;SDS011;5277;48.722;8.736;2024-03-02T11:44:59;4.25;;;2.63;;
10458;SDS011;5277;48.722;8.736;2024-03-02T11:47:24;2.58;;;2.08;;
10458;SDS011;5277;48.722;8.736;2024-03-02T11:49:59;4.95;;;1.95;;
10458;SDS011;5277;48.722;8.736;2024-03-02T11:52:36;1.80;;;1.40;;
10458;SDS011;5277;48.722;8.736;2024-03-02T11:55:08;1.98;;;1.48;;
10458;SDS011;5277;48.722;8.736;2024-03-02T11:57:50;2.85;;;2.10;;
10458;SDS011;5277;48.722;8.736;2024-03-02T12:00:27;2.47;;;1.40;;
10458;SDS011;5277;48.722;8.736;2024-03-02T12:03:06;1.85;;;1.38;;
10458;SDS011;5277;48.722;8.736;2024-03-02T12:05:58;1.50;;;1.20;;
10458;SDS011;5277;48.722;8.736;2024-03-02T12:08:35;1.45;;;1.10;;
10458;SDS011;5277;48.722;8.736;2024-03-02T12:11:02;1.70;;;1.17;;
10458;SDS011;5277;48.722;8.736;2024-03-02T12:13:27;1.80;;;1.20;;
10458;SDS011;5277;48.722;8.736;2024-03-02T12:15:56;1.85;;;1.45;;
10458;SDS011;5277;48.722;8.736;2024-03-02T12:18:31;2.15;;;1.00;;
10458;SDS011;5277;48.722;8.736;2024-03-02T12:21:05;2.17;;;1.42;;
10458;SDS011;5277;48.722;8.736;2024-03-02T12:23:41;1.67;;;1.30;;
10458;SDS011;5277;48.722;8.736;2024-03-02T12:26:12;1.75;;;1.30;;
10458;SDS011;5277;48.722;8.736;2024-03-02T12:28:48;1.40;;;1.20;;
10458;SDS011;5277;48.722;8.736;2024-03-02T12:31:23;1.80;;;1.30;;
10458;SDS011;5277;48.722;8.736;2024-03-02T12:33:49;1.42;;;1.20;;
10458;SDS011;5277;48.722;8.736;2024-03-02T12:36:37;1.55;;;1.23;;
10458;SDS011;5277;48.722;8.736;2024-03-02T12:39:04;1.90;;;1.40;;
10458;SDS011;5277;48.722;8.736;2024-03-02T12:41:32;1.45;;;1.13;;
10458;SDS011;5277;48.722;8.736;2024-03-02T12:44:01;2.88;;;1.20;;
10458;SDS011;5277;48.722;8.736;2024-03-02T12:46:30;3.08;;;1.40;;
10458;SDS011;5277;48.722;8.736;2024-03-02T12:49:07;2.08;;;1.35;;
10458;SDS011;5277;48.722;8.736;2024-03-02T12:51:39;1.80;;;1.27;;
10458;SDS011;5277;48.722;8.736;2024-03-02T12:54:10;1.70;;;1.40;;
10458;SDS011;5277;48.722;8.736;2024-03-02T12:56:43;1.42;;;1.30;;
10458;SDS011;5277;48.722;8.736;2024-03-02T12:59:18;2.05;;;1.30;;
10458;SDS011;5277;48.722;8.736;2024-03-02T13:01:54;2.00;;;1.40;;
10458;SDS011;5277;48.722;8.736;2024-03-02T13:04:26;2.05;;;1.45;;
10458;SDS011;5277;48.722;8.736;2024-03-02T13:06:53;1.90;;;1.45;;
10458;SDS011;5277;48.722;8.736;2024-03-02T13:09:31;2.40;;;1.70;;
10458;SDS011;5277;48.722;8.736;2024-03-02T13:11:58;1.75;;;1.38;;
10458;SDS011;5277;48.722;8.736;2024-03-02T13:14:29;2.40;;;2.17;;
10458;SDS011;5277;48.722;8.736;2024-03-02T13:16:58;2.03;;;1.50;;
10458;SDS011;5277;48.722;8.736;2024-03-02T13:19:25;1.75;;;1.35;;
10458;SDS011;5277;48.722;8.736;2024-03-02T13:21:50;3.78;;;1.40;;
10458;SDS011;5277;48.722;8.736;2024-03-02T13:24:16;2.08;;;1.50;;
10458;SDS011;5277;48.722;8.736;2024-03-02T13:26:42;2.25;;;1.60;;
10458;SDS011;5277;48.722;8.736;2024-03-02T13:29:08;6.35;;;2.45;;
10458;SDS011;5277;48.722;8.736;2024-03-02T13:31:34;2.00;;;1.60;;
10458;SDS011;5277;48.722;8.736;2024-03-02T13:33:59;7.40;;;1.77;;
10458;SDS011;5277;48.722;8.736;2024-03-02T13:36:25;2.00;;;1.63;;
10458;SDS011;5277;48.722;8.736;2024-03-02T13:38:51;3.85;;;1.52;;
10458;SDS011;5277;48.722;8.736;2024-03-02T13:41:16;2.65;;;1.60;;
10458;SDS011;5277;48.722;8.736;2024-03-02T13:43:42;2.00;;;1.60;;
10458;SDS011;5277;48.722;8.736;2024-03-02T13:46:09;6.53;;;1.65;;
10458;SDS011;5277;48.722;8.736;2024-03-02T13:48:35;2.17;;;1.63;;
10458;SDS011;5277;48.722;8.736;2024-03-02T13:51:01;1.98;;;1.52;;
10458;SDS011;5277;48.722;8.736;2024-03-02T13:53:27;1.70;;;1.40;;
10458;SDS011;5277;48.722;8.736;2024-03-02T13:55:53;1.60;;;1.33;;
10458;SDS011;5277;48.722;8.736;2024-03-02T13:58:19;2.03;;;1.60;;
10458;SDS011;5277;48.722;8.736;2024-03-02T14:00:45;3.03;;;1.60;;
10458;SDS011;5277;48.722;8.736;2024-03-02T14:03:30;2.05;;;1.50;;
10458;SDS011;5277;48.722;8.736;2024-03-02T14:05:56;2.33;;;1.40;;
10458;SDS011;5277;48.722;8.736;2024-03-02T14:08:25;2.45;;;1.60;;
10458;SDS011;5277;48.722;8.736;2024-03-02T14:11:01;1.95;;;1.48;;
10458;SDS011;5277;48.722;8.736;2024-03-02T14:13:29;2.10;;;1.38;;
10458;SDS011;5277;48.722;8.736;2024-03-02T14:15:55;2.15;;;1.52;;
10458;SDS011;5277;48.722;8.736;2024-03-02T14:18:26;2.88;;;1.65;;
10458;SDS011;5277;48.722;8.736;2024-03-02T14:20:55;1.65;;;1.25;;
10458;SDS011;5277;48.722;8.736;2024-03-02T14:23:21;2.10;;;1.38;;
10458;SDS011;5277;48.722;8.736;2024-03-02T14:25:58;4.18;;;1.58;;
10458;SDS011;5277;48.722;8.736;2024-03-02T14:28:37;2.28;;;1.20;;
10458;SDS011;5277;48.722;8.736;2024-03-02T14:31:03;2.40;;;1.38;;
10458;SDS011;5277;48.722;8.736;2024-03-02T14:33:34;1.73;;;1.15;;
10458;SDS011;5277;48.722;8.736;2024-03-02T14:36:03;3.10;;;1.30;;
10458;SDS011;5277;48.722;8.736;2024-03-02T14:38:29;1.75;;;1.17;;
10458;SDS011;5277;48.722;8.736;2024-03-02T14:40:55;2.15;;;1.40;;
10458;SDS011;5277;48.722;8.736;2024-03-02T14:43:24;2.47;;;1.30;;
10458;SDS011;5277;48.722;8.736;2024-03-02T14:45:50;2.50;;;1.30;;
10458;SDS011;5277;48.722;8.736;2024-03-02T14:48:16;2.00;;;1.35;;
10458;SDS011;5277;48.722;8.736;2024-03-02T14:50:42;1.88;;;1.05;;
10458;SDS011;5277;48.722;8.736;2024-03-02T14:53:14;1.52;;;1.20;;
10458;SDS011;5277;48.722;8.736;2024-03-02T14:55:42;2.95;;;1.40;;
10458;SDS011;5277;48.722;8.736;2024-03-02T14:58:11;4.22;;;1.20;;
10458;SDS011;5277;48.722;8.736;2024-03-02T15:00:39;1.70;;;1.05;;
10458;SDS011;5277;48.722;8.736;2024-03-02T15:03:07;2.30;;;1.55;;
10458;SDS011;5277;48.722;8.736;2024-03-02T15:05:34;4.55;;;1.58;;
10458;SDS011;5277;48.722;8.736;2024-03-02T15:08:03;2.97;;;1.50;;
10458;SDS011;5277;48.722;8.736;2024-03-02T15:10:44;5.50;;;1.40;;
10458;SDS011;5277;48.722;8.736;2024-03-02T15:13:10;3.00;;;1.30;;
10458;SDS011;5277;48.722;8.736;2024-03-02T15:15:36;2.78;;;1.10;;
10458;SDS011;5277;48.722;8.736;2024-03-02T15:18:04;1.70;;;1.20;;
10458;SDS011;5277;48.722;8.736;2024-03-02T15:20:39;2.08;;;1.10;;
10458;SDS011;5277;48.722;8.736;2024-03-02T15:23:11;5.68;;;1.45;;
10458;SDS011;5277;48.722;8.736;2024-03-02T15:25:39;3.15;;;1.70;;
10458;SDS011;5277;48.722;8.736;2024-03-02T15:28:05;2.85;;;1.52;;
10458;SDS011;5277;48.722;8.736;2024-03-02T15:30:31;4.68;;;1.38;;
10458;SDS011;5277;48.722;8.736;2024-03-02T15:32:59;6.13;;;1.52;;
10458;SDS011;5277;48.722;8.736;2024-03-02T15:35:30;6.50;;;1.50;;
10458;SDS011;5277;48.722;8.736;2024-03-02T15:38:01;14.70;;;2.00;;
10458;SDS011;5277;48.722;8.736;2024-03-02T15:40:27;15.57;;;3.10;;
10458;SDS011;5277;48.722;8.736;2024-03-02T15:42:53;9.30;;;1.98;;
10458;SDS011;5277;48.722;8.736;2024-03-02T15:45:19;8.38;;;2.55;;
10458;SDS011;5277;48.722;8.736;2024-03-02T15:47:47;6.90;;;1.67;;
10458;SDS011;5277;48.722;8.736;2024-03-02T15:50:15;1.80;;;1.10;;
10458;SDS011;5277;48.722;8.736;2024-03-02T15:52:41;3.42;;;1.50;;
10458;SDS011;5277;48.722;8.736;2024-03-02T15:55:07;5.10;;;1.67;;
10458;SDS011;5277;48.722;8.736;2024-03-02T15:57:33;5.22;;;2.13;;
10458;SDS011;5277;48.722;8.736;2024-03-02T16:00:00;8.93;;;1.85;;
10458;SDS011;5277;48.722;8.736;2024-03-02T16:02:25;11.93;;;2.38;;
10458;SDS011;5277;48.722;8.736;2024-03-02T16:04:51;9.77;;;1.88;;
10458;SDS011;5277;48.722;8.736;2024-03-02T16:07:24;11.65;;;2.00;;
10458;SDS011;5277;48.722;8.736;2024-03-02T16:09:52;2.75;;;1.52;;
10458;SDS011;5277;48.722;8.736;2024-03-02T16:12:18;2.38;;;1.48;;
10458;SDS011;5277;48.722;8.736;2024-03-02T16:14:46;7.93;;;1.75;;
10458;SDS011;5277;48.722;8.736;2024-03-02T16:17:16;2.03;;;1.40;;
10458;SDS011;5277;48.722;8.736;2024-03-02T16:19:45;1.85;;;1.20;;